createdAt,value
2019-03-17T00:00:43.794Z,80.83
2019-03-17T00:01:43.773Z,80.49
2019-03-17T00:02:43.787Z,80.28
2019-03-17T00:03:43.763Z,80.07
2019-03-17T00:04:43.753Z,79.97
2019-03-17T00:05:43.733Z,80.18
2019-03-17T00:06:43.726Z,79.46
2019-03-17T00:07:43.709Z,79.97
2019-03-17T00:08:43.711Z,79.56
2019-03-17T00:09:43.703Z,79.05
2019-03-17T00:10:43.675Z,79.46
2019-03-17T00:11:43.676Z,79.01
2019-03-17T00:12:43.659Z,79.46
2019-03-17T00:13:43.638Z,79.66
2019-03-17T00:14:43.641Z,79.05
2019-03-17T00:15:43.634Z,78.94
2019-03-17T00:16:43.604Z,79.25
2019-03-17T00:17:43.607Z,79.05
2019-03-17T00:18:43.624Z,78.94
2019-03-17T00:19:43.603Z,79.01
2019-03-17T00:20:43.570Z,78.91
2019-03-17T00:21:43.551Z,78.85
2019-03-17T00:22:43.545Z,79.05
2019-03-17T00:23:43.535Z,78.64
2019-03-17T00:24:43.590Z,78.74
2019-03-17T00:25:43.632Z,78.94
2019-03-17T00:26:43.530Z,78.85
2019-03-17T00:27:43.494Z,78.94
2019-03-17T00:28:44.496Z,79.05
2019-03-17T00:29:43.480Z,79.25
2019-03-17T00:30:43.458Z,79.36
2019-03-17T00:31:43.463Z,79.56
2019-03-17T00:32:43.442Z,78.94
2019-03-17T00:33:43.425Z,78.98
2019-03-17T00:34:44.576Z,78.88
2019-03-17T00:35:43.409Z,79.15
2019-03-17T00:36:43.390Z,79.46
2019-03-17T00:37:43.397Z,79.77
2019-03-17T00:38:43.383Z,79.36
2019-03-17T00:39:43.358Z,79.46
2019-03-17T00:40:43.343Z,79.05
2019-03-17T00:41:43.357Z,78.78
2019-03-17T00:42:43.345Z,79.25
2019-03-17T00:43:43.318Z,78.88
2019-03-17T00:44:43.311Z,78.64
2019-03-17T00:45:43.291Z,78.12
2019-03-17T00:46:43.287Z,78.23
2019-03-17T00:47:43.270Z,77.92
2019-03-17T00:48:43.309Z,78.12
2019-03-17T00:49:43.328Z,78.29
2019-03-17T00:50:43.241Z,78.23
2019-03-17T00:51:43.233Z,77.81
2019-03-17T00:52:43.237Z,78.33
2019-03-17T00:53:43.203Z,78.85
2019-03-17T00:54:43.199Z,78.64
2019-03-17T00:55:43.188Z,78.53
2019-03-17T00:56:43.188Z,78.43
2019-03-17T00:57:43.176Z,78.43
2019-03-17T00:58:43.220Z,78.43
2019-03-17T00:59:43.139Z,78.33
2019-03-17T01:00:43.127Z,77.30
2019-03-17T01:01:43.131Z,77.10
2019-03-17T01:02:43.113Z,76.75
2019-03-17T01:03:43.117Z,76.45
2019-03-17T01:04:51.788Z,76.86
2019-03-17T01:05:44.083Z,76.04
2019-03-17T01:06:43.066Z,75.79
2019-03-17T01:07:43.059Z,76.04
2019-03-17T01:08:43.044Z,75.83
2019-03-17T01:09:43.052Z,76.10
2019-03-17T01:10:43.028Z,75.69
2019-03-17T01:11:43.049Z,76.20
2019-03-17T01:12:44.974Z,75.93
2019-03-17T01:13:43.000Z,76.00
2019-03-17T01:14:43.009Z,76.45
2019-03-17T01:15:42.977Z,76.31
2019-03-17T01:16:42.969Z,76.14
2019-03-17T01:17:42.958Z,76.45
2019-03-17T01:18:42.936Z,76.55
2019-03-17T01:19:42.947Z,75.93
2019-03-17T01:20:42.910Z,76.34
2019-03-17T01:21:42.911Z,75.90
2019-03-17T01:22:42.895Z,76.20
2019-03-17T01:23:42.885Z,76.31
2019-03-17T01:24:42.909Z,75.28
2019-03-17T01:25:42.867Z,74.77
2019-03-17T01:26:42.849Z,74.98
2019-03-17T01:27:42.921Z,75.38
2019-03-17T01:28:42.832Z,74.98
2019-03-17T01:29:42.824Z,74.36
2019-03-17T01:30:42.829Z,76.31
2019-03-17T01:31:42.800Z,75.08
2019-03-17T01:32:42.784Z,76.41
2019-03-17T01:33:42.781Z,74.98
2019-03-17T01:34:42.802Z,75.52
2019-03-17T01:35:42.758Z,75.08
2019-03-17T01:36:42.743Z,75.79
2019-03-17T01:37:42.747Z,75.83
2019-03-17T01:38:42.730Z,74.87
2019-03-17T01:39:42.722Z,75.08
2019-03-17T01:40:42.698Z,74.57
2019-03-17T01:41:42.690Z,74.87
2019-03-17T01:42:42.685Z,74.36
2019-03-17T01:43:42.675Z,74.87
2019-03-17T01:44:42.668Z,74.49
2019-03-17T01:45:42.647Z,74.91
2019-03-17T01:46:42.642Z,75.08
2019-03-17T01:47:42.637Z,74.77
2019-03-17T01:48:42.615Z,75.08
2019-03-17T01:49:42.618Z,74.87
2019-03-17T01:50:42.601Z,74.98
2019-03-17T01:51:42.577Z,74.57
2019-03-17T01:52:42.568Z,74.98
2019-03-17T01:53:42.561Z,74.80
2019-03-17T01:54:42.567Z,75.42
2019-03-17T01:55:42.555Z,75.52
2019-03-17T01:56:42.531Z,74.60
2019-03-17T01:57:42.517Z,75.42
2019-03-17T01:58:42.502Z,76.55
2019-03-17T01:59:42.508Z,76.34
2019-03-17T02:00:42.494Z,75.01
2019-03-17T02:01:42.475Z,75.42
2019-03-17T02:02:42.461Z,75.11
2019-03-17T02:03:42.446Z,75.42
2019-03-17T02:04:42.450Z,75.42
2019-03-17T02:05:42.430Z,75.11
2019-03-17T02:06:42.433Z,74.60
2019-03-17T02:07:42.417Z,74.80
2019-03-17T02:08:42.416Z,74.91
2019-03-17T02:09:42.386Z,76.04
2019-03-17T02:10:42.386Z,75.42
2019-03-17T02:11:42.361Z,75.11
2019-03-17T02:12:42.352Z,74.60
2019-03-17T02:13:42.354Z,75.32
2019-03-17T02:14:42.339Z,74.91
2019-03-17T02:15:42.330Z,74.49
2019-03-17T02:16:42.310Z,74.80
2019-03-17T02:17:42.302Z,74.70
2019-03-17T02:18:42.309Z,74.60
2019-03-17T02:19:42.289Z,74.60
2019-03-17T02:20:42.303Z,74.80
2019-03-17T02:21:42.254Z,74.80
2019-03-17T02:22:42.253Z,75.21
2019-03-17T02:23:42.257Z,75.01
2019-03-17T02:24:42.226Z,75.42
2019-03-17T02:25:42.220Z,75.21
2019-03-17T02:26:42.205Z,75.21
2019-03-17T02:27:42.207Z,75.42
2019-03-17T02:28:42.181Z,75.32
2019-03-17T02:29:42.167Z,75.42
2019-03-17T02:30:42.155Z,75.45
2019-03-17T02:31:42.159Z,75.15
2019-03-17T02:32:42.156Z,75.76
2019-03-17T02:33:42.143Z,76.07
2019-03-17T02:34:42.116Z,76.48
2019-03-17T02:35:42.128Z,76.58
2019-03-17T02:36:42.104Z,75.76
2019-03-17T02:37:42.094Z,76.31
2019-03-17T02:38:42.093Z,75.35
2019-03-17T02:39:42.066Z,75.35
2019-03-17T02:40:42.055Z,75.45
2019-03-17T02:41:42.044Z,75.18
2019-03-17T02:42:42.032Z,75.45
2019-03-17T02:43:42.018Z,75.38
2019-03-17T02:44:42.038Z,74.94
2019-03-17T02:45:41.995Z,75.04
2019-03-17T02:46:41.995Z,74.74
2019-03-17T02:47:41.976Z,74.74
2019-03-17T02:48:41.968Z,75.90
2019-03-17T02:49:41.955Z,74.84
2019-03-17T02:50:41.955Z,75.18
2019-03-17T02:51:41.952Z,74.94
2019-03-17T02:52:41.932Z,74.63
2019-03-17T02:53:41.910Z,74.63
2019-03-17T02:54:41.903Z,74.74
2019-03-17T02:55:41.899Z,74.22
2019-03-17T02:56:41.992Z,74.74
2019-03-17T02:57:41.868Z,74.63
2019-03-17T02:58:41.862Z,74.74
2019-03-17T02:59:41.853Z,74.67
2019-03-17T03:00:41.851Z,74.63
2019-03-17T03:01:41.817Z,75.04
2019-03-17T03:02:41.875Z,74.87
2019-03-17T03:03:41.802Z,76.42
2019-03-17T03:04:41.802Z,75.49
2019-03-17T03:05:53.856Z,75.08
2019-03-17T03:06:42.763Z,74.98
2019-03-17T03:07:41.753Z,74.87
2019-03-17T03:08:41.745Z,74.77
2019-03-17T03:09:41.833Z,74.77
2019-03-17T03:10:41.743Z,74.67
2019-03-17T03:11:41.731Z,74.77
2019-03-17T03:12:41.714Z,75.49
2019-03-17T03:13:41.689Z,75.49
2019-03-17T03:14:41.694Z,74.46
2019-03-17T03:15:41.670Z,76.31
2019-03-17T03:16:41.667Z,75.80
2019-03-17T03:17:41.645Z,75.73
2019-03-17T03:18:41.639Z,76.04
2019-03-17T03:19:41.646Z,76.55
2019-03-17T03:20:41.630Z,76.55
2019-03-17T03:21:41.603Z,76.45
2019-03-17T03:22:41.620Z,76.14
2019-03-17T03:23:41.583Z,75.93
2019-03-17T03:24:41.571Z,75.52
2019-03-17T03:25:41.554Z,75.70
2019-03-17T03:26:41.549Z,75.73
2019-03-17T03:27:41.538Z,76.35
2019-03-17T03:28:41.536Z,75.52
2019-03-17T03:29:41.520Z,75.18
2019-03-17T03:30:41.525Z,74.77
2019-03-17T03:31:41.503Z,75.38
2019-03-17T03:32:41.491Z,74.77
2019-03-17T03:33:41.493Z,75.08
2019-03-17T03:34:41.462Z,74.98
2019-03-17T03:35:41.470Z,75.04
2019-03-17T03:36:41.445Z,74.63
2019-03-17T03:37:41.437Z,74.87
2019-03-17T03:38:41.413Z,74.87
2019-03-17T03:39:41.411Z,75.04
2019-03-17T03:40:41.399Z,74.84
2019-03-17T03:41:41.395Z,74.74
2019-03-17T03:42:41.402Z,75.15
2019-03-17T03:43:41.370Z,74.74
2019-03-17T03:44:41.350Z,74.84
2019-03-17T03:45:41.344Z,74.84
2019-03-17T03:46:41.340Z,75.04
2019-03-17T03:47:41.314Z,74.02
2019-03-17T03:48:41.305Z,75.25
2019-03-17T03:49:41.293Z,74.60
2019-03-17T03:50:41.299Z,74.84
2019-03-17T03:51:41.287Z,74.74
2019-03-17T03:52:41.275Z,74.60
2019-03-17T03:53:41.255Z,73.88
2019-03-17T03:54:41.244Z,73.88
2019-03-17T03:55:42.422Z,74.19
2019-03-17T03:56:41.221Z,74.08
2019-03-17T03:57:41.227Z,74.40
2019-03-17T03:58:41.199Z,74.91
2019-03-17T03:59:41.188Z,73.98
2019-03-17T04:00:41.172Z,74.12
2019-03-17T04:01:41.173Z,74.08
2019-03-17T04:02:41.164Z,74.12
2019-03-17T04:03:41.164Z,74.74
2019-03-17T04:04:41.133Z,74.74
2019-03-17T04:05:41.137Z,74.63
2019-03-17T04:06:41.108Z,74.91
2019-03-17T04:07:41.101Z,75.04
2019-03-17T04:08:41.087Z,74.74
2019-03-17T04:09:41.085Z,75.11
2019-03-17T04:10:41.061Z,74.84
2019-03-17T04:11:41.050Z,74.12
2019-03-17T04:12:41.050Z,74.91
2019-03-17T04:13:41.033Z,75.15
2019-03-17T04:14:41.028Z,75.01
2019-03-17T04:15:41.015Z,75.01
2019-03-17T04:16:41.006Z,74.70
2019-03-17T04:17:41.041Z,75.04
2019-03-17T04:18:40.981Z,74.43
2019-03-17T04:19:40.975Z,74.70
2019-03-17T04:20:40.956Z,75.04
2019-03-17T04:21:40.949Z,74.80
2019-03-17T04:22:40.949Z,74.80
2019-03-17T04:23:40.931Z,74.84
2019-03-17T04:24:40.915Z,75.01
2019-03-17T04:25:40.913Z,75.15
2019-03-17T04:26:40.898Z,74.74
2019-03-17T04:27:40.907Z,74.94
2019-03-17T04:28:40.892Z,74.63
2019-03-17T04:29:40.854Z,75.04
2019-03-17T04:30:40.838Z,75.35
2019-03-17T04:31:40.837Z,74.63
2019-03-17T04:32:40.826Z,74.63
2019-03-17T04:33:40.829Z,74.80
2019-03-17T04:34:40.820Z,74.43
2019-03-17T04:35:40.798Z,74.84
2019-03-17T04:36:40.910Z,74.91
2019-03-17T04:37:40.772Z,74.80
2019-03-17T04:38:43.721Z,74.84
2019-03-17T04:39:40.763Z,75.15
2019-03-17T04:40:40.736Z,74.49
2019-03-17T04:41:40.734Z,74.91
2019-03-17T04:42:40.717Z,75.21
2019-03-17T04:43:40.697Z,74.80
2019-03-17T04:44:40.701Z,74.60
2019-03-17T04:45:40.685Z,74.60
2019-03-17T04:46:40.673Z,74.94
2019-03-17T04:47:40.665Z,75.21
2019-03-17T04:48:40.670Z,74.80
2019-03-17T04:49:40.646Z,74.84
2019-03-17T04:50:40.621Z,74.80
2019-03-17T04:51:40.613Z,75.32
2019-03-17T04:52:40.616Z,74.70
2019-03-17T04:53:40.594Z,74.80
2019-03-17T04:54:40.591Z,75.32
2019-03-17T04:55:40.576Z,74.70
2019-03-17T04:56:40.560Z,75.32
2019-03-17T04:57:40.572Z,74.91
2019-03-17T04:58:40.543Z,74.19
2019-03-17T04:59:40.532Z,74.70
2019-03-17T05:00:40.521Z,74.91
2019-03-17T05:01:40.507Z,74.80
2019-03-17T05:02:40.509Z,74.91
2019-03-17T05:03:40.482Z,73.74
2019-03-17T05:04:40.492Z,74.77
2019-03-17T05:05:40.466Z,74.87
2019-03-17T05:06:51.944Z,74.98
2019-03-17T05:07:41.466Z,74.60
2019-03-17T05:08:40.438Z,74.98
2019-03-17T05:09:40.419Z,74.77
2019-03-17T05:10:40.499Z,74.15
2019-03-17T05:11:40.404Z,74.57
2019-03-17T05:12:40.394Z,74.98
2019-03-17T05:13:40.377Z,74.91
2019-03-17T05:14:40.396Z,74.87
2019-03-17T05:15:40.368Z,74.77
2019-03-17T05:16:40.342Z,74.80
2019-03-17T05:17:40.344Z,74.60
2019-03-17T05:18:40.330Z,74.70
2019-03-17T05:19:40.318Z,73.74
2019-03-17T05:20:40.305Z,74.60
2019-03-17T05:21:40.310Z,74.15
2019-03-17T05:22:40.283Z,75.28
2019-03-17T05:23:40.270Z,73.95
2019-03-17T05:24:40.256Z,74.57
2019-03-17T05:25:40.268Z,74.77
2019-03-17T05:26:40.259Z,73.95
2019-03-17T05:27:40.232Z,74.98
2019-03-17T05:28:40.215Z,74.73
2019-03-17T05:29:40.211Z,74.05
2019-03-17T05:30:40.197Z,74.46
2019-03-17T05:31:40.197Z,74.57
2019-03-17T05:32:40.173Z,75.08
2019-03-17T05:33:40.161Z,74.98
2019-03-17T05:34:40.146Z,74.66
2019-03-17T05:35:40.137Z,74.46
2019-03-17T05:36:40.156Z,74.57
2019-03-17T05:37:40.150Z,74.98
2019-03-17T05:38:40.112Z,74.87
2019-03-17T05:39:40.110Z,74.57
2019-03-17T05:40:40.087Z,75.08
2019-03-17T05:41:40.076Z,74.66
2019-03-17T05:42:40.843Z,74.57
2019-03-17T05:43:40.057Z,74.77
2019-03-17T05:44:40.043Z,74.87
2019-03-17T05:45:40.036Z,74.77
2019-03-17T05:46:40.017Z,74.77
2019-03-17T05:47:40.024Z,74.66
2019-03-17T05:48:40.005Z,74.63
2019-03-17T05:49:39.993Z,74.66
2019-03-17T05:50:39.990Z,74.57
2019-03-17T05:51:39.969Z,74.36
2019-03-17T05:52:39.978Z,75.38
2019-03-17T05:53:40.433Z,75.24
2019-03-17T05:54:39.941Z,75.56
2019-03-17T05:55:39.923Z,75.24
2019-03-17T05:56:39.913Z,75.28
2019-03-17T05:57:40.011Z,75.15
2019-03-17T05:58:39.895Z,74.98
2019-03-17T05:59:39.880Z,76.41
2019-03-17T06:00:39.868Z,76.00
2019-03-17T06:01:39.870Z,76.41
2019-03-17T06:02:39.862Z,75.38
2019-03-17T06:03:39.840Z,76.10
2019-03-17T06:04:39.847Z,76.62
2019-03-17T06:05:39.821Z,75.86
2019-03-17T06:06:39.805Z,75.90
2019-03-17T06:07:39.794Z,76.10
2019-03-17T06:08:39.786Z,76.00
2019-03-17T06:09:39.776Z,76.10
2019-03-17T06:10:39.777Z,76.10
2019-03-17T06:11:39.756Z,75.79
2019-03-17T06:12:39.745Z,75.69
2019-03-17T06:13:39.761Z,76.10
2019-03-17T06:14:39.719Z,76.37
2019-03-17T06:15:39.708Z,76.41
2019-03-17T06:16:39.700Z,76.20
2019-03-17T06:17:39.681Z,77.03
2019-03-17T06:18:39.691Z,76.82
2019-03-17T06:19:39.665Z,77.03
2019-03-17T06:20:39.653Z,77.03
2019-03-17T06:21:39.646Z,77.23
2019-03-17T06:22:39.633Z,77.13
2019-03-17T06:23:39.621Z,77.23
2019-03-17T06:24:39.623Z,77.33
2019-03-17T06:25:39.602Z,78.05
2019-03-17T06:26:39.600Z,78.05
2019-03-17T06:27:39.599Z,78.02
2019-03-17T06:28:39.579Z,78.05
2019-03-17T06:29:39.577Z,78.12
2019-03-17T06:30:39.546Z,77.84
2019-03-17T06:31:39.535Z,78.16
2019-03-17T06:32:39.522Z,78.02
2019-03-17T06:33:39.517Z,77.95
2019-03-17T06:34:39.528Z,77.95
2019-03-17T06:35:39.498Z,77.71
2019-03-17T06:36:39.496Z,77.84
2019-03-17T06:37:39.463Z,77.64
2019-03-17T06:38:39.458Z,77.84
2019-03-17T06:39:39.443Z,78.16
2019-03-17T06:40:39.446Z,77.50
2019-03-17T06:41:39.426Z,77.40
2019-03-17T06:42:39.413Z,77.61
2019-03-17T06:43:39.403Z,78.02
2019-03-17T06:44:39.412Z,77.61
2019-03-17T06:45:39.383Z,77.91
2019-03-17T06:46:39.367Z,78.12
2019-03-17T06:47:39.361Z,78.12
2019-03-17T06:48:39.350Z,77.91
2019-03-17T06:49:39.343Z,76.99
2019-03-17T06:50:39.335Z,77.40
2019-03-17T06:51:39.317Z,78.12
2019-03-17T06:52:39.298Z,76.95
2019-03-17T06:53:39.296Z,76.68
2019-03-17T06:54:39.292Z,77.36
2019-03-17T06:55:39.284Z,76.58
2019-03-17T06:56:39.268Z,76.95
2019-03-17T06:57:39.259Z,77.40
2019-03-17T06:58:39.239Z,76.85
2019-03-17T06:59:39.250Z,78.08
2019-03-17T07:00:39.588Z,77.91
2019-03-17T07:01:39.324Z,77.81
2019-03-17T07:02:39.196Z,77.61
2019-03-17T07:03:39.183Z,77.87
2019-03-17T07:04:39.170Z,77.98
2019-03-17T07:05:39.166Z,77.71
2019-03-17T07:06:39.168Z,77.98
2019-03-17T07:07:44.515Z,77.91
2019-03-17T07:08:40.131Z,77.61
2019-03-17T07:09:39.111Z,78.02
2019-03-17T07:10:39.111Z,77.71
2019-03-17T07:11:39.120Z,77.81
2019-03-17T07:12:39.161Z,77.81
2019-03-17T07:13:39.079Z,77.91
2019-03-17T07:14:39.066Z,78.42
2019-03-17T07:15:39.051Z,78.08
2019-03-17T07:16:39.064Z,78.39
2019-03-17T07:17:39.031Z,77.91
2019-03-17T07:18:39.019Z,77.91
2019-03-17T07:19:39.019Z,77.77
2019-03-17T07:20:39.005Z,78.63
2019-03-17T07:21:38.995Z,78.42
2019-03-17T07:22:38.998Z,78.12
2019-03-17T07:23:38.962Z,77.81
2019-03-17T07:24:38.962Z,78.08
2019-03-17T07:25:38.953Z,77.98
2019-03-17T07:26:38.930Z,77.98
2019-03-17T07:27:38.932Z,77.77
2019-03-17T07:28:38.915Z,77.67
2019-03-17T07:29:38.893Z,77.98
2019-03-17T07:30:38.920Z,77.87
2019-03-17T07:31:38.874Z,77.98
2019-03-17T07:32:38.870Z,77.98
2019-03-17T07:33:38.861Z,78.02
2019-03-17T07:34:38.842Z,77.98
2019-03-17T07:35:38.857Z,78.08
2019-03-17T07:36:38.826Z,77.87
2019-03-17T07:37:38.832Z,78.19
2019-03-17T07:38:38.809Z,78.19
2019-03-17T07:39:38.794Z,77.77
2019-03-17T07:40:38.784Z,77.98
2019-03-17T07:41:38.771Z,77.47
2019-03-17T07:42:38.772Z,77.77
2019-03-17T07:43:38.740Z,77.67
2019-03-17T07:44:38.727Z,78.39
2019-03-17T07:45:38.736Z,77.67
2019-03-17T07:46:38.713Z,77.47
2019-03-17T07:47:38.710Z,77.77
2019-03-17T07:48:38.720Z,77.77
2019-03-17T07:49:38.673Z,78.08
2019-03-17T07:50:38.681Z,77.73
2019-03-17T07:51:38.657Z,77.53
2019-03-17T07:52:38.666Z,76.92
2019-03-17T07:53:38.634Z,76.95
2019-03-17T07:54:38.625Z,77.12
2019-03-17T07:55:38.618Z,77.94
2019-03-17T07:56:38.595Z,77.02
2019-03-17T07:57:38.600Z,76.10
2019-03-17T07:58:38.594Z,77.23
2019-03-17T07:59:38.601Z,77.94
2019-03-17T08:00:38.566Z,76.40
2019-03-17T08:01:38.553Z,76.92
2019-03-17T08:02:38.531Z,76.40
2019-03-17T08:03:38.525Z,77.53
2019-03-17T08:04:43.117Z,78.05
2019-03-17T08:05:39.509Z,77.94
2019-03-17T08:06:38.497Z,76.51
2019-03-17T08:07:38.484Z,77.94
2019-03-17T08:08:38.613Z,77.12
2019-03-17T08:09:38.461Z,76.92
2019-03-17T08:10:38.466Z,76.51
2019-03-17T08:11:38.438Z,77.94
2019-03-17T08:12:38.430Z,77.64
2019-03-17T08:13:38.408Z,76.92
2019-03-17T08:14:38.417Z,77.64
2019-03-17T08:15:38.392Z,77.84
2019-03-17T08:16:38.386Z,77.73
2019-03-17T08:17:38.395Z,76.92
2019-03-17T08:18:38.372Z,77.70
2019-03-17T08:19:38.355Z,77.73
2019-03-17T08:20:38.345Z,77.84
2019-03-17T08:21:38.343Z,78.97
2019-03-17T08:22:38.315Z,80.09
2019-03-17T08:23:38.325Z,80.13
2019-03-17T08:24:38.300Z,79.86
2019-03-17T08:25:38.278Z,80.99
2019-03-17T08:26:38.269Z,82.18
2019-03-17T08:27:38.260Z,81.91
2019-03-17T08:28:38.264Z,82.40
2019-03-17T08:29:38.243Z,83.42
2019-03-17T08:30:38.239Z,81.82
2019-03-17T08:31:38.219Z,81.82
2019-03-17T08:32:41.118Z,81.45
2019-03-17T08:33:38.194Z,82.14
2019-03-17T08:34:38.210Z,84.03
2019-03-17T08:35:38.172Z,84.54
2019-03-17T08:36:38.159Z,84.17
2019-03-17T08:37:38.154Z,84.48
2019-03-17T08:38:38.143Z,84.62
2019-03-17T08:39:38.150Z,84.42
2019-03-17T08:40:38.112Z,85.65
2019-03-17T08:41:38.111Z,85.65
2019-03-17T08:42:38.098Z,85.55
2019-03-17T08:43:38.086Z,86.27
2019-03-17T08:44:38.130Z,86.41
2019-03-17T08:45:38.067Z,86.16
2019-03-17T08:46:38.053Z,86.99
2019-03-17T08:47:38.040Z,86.47
2019-03-17T08:48:38.027Z,87.19
2019-03-17T08:49:38.025Z,86.68
2019-03-17T08:50:38.024Z,85.55
2019-03-17T08:51:38.141Z,84.00
2019-03-17T08:52:37.991Z,85.75
2019-03-17T08:53:37.973Z,85.55
2019-03-17T08:54:37.966Z,85.69
2019-03-17T08:55:37.959Z,85.28
2019-03-17T08:56:37.962Z,86.16
2019-03-17T08:57:37.944Z,85.89
2019-03-17T08:58:37.921Z,85.07
2019-03-17T08:59:37.918Z,85.07
2019-03-17T09:00:37.896Z,84.56
2019-03-17T09:01:37.913Z,84.31
2019-03-17T09:02:37.883Z,83.84
2019-03-17T09:03:37.871Z,84.14
2019-03-17T09:04:37.863Z,84.62
2019-03-17T09:05:37.841Z,85.34
2019-03-17T09:06:37.841Z,84.62
2019-03-17T09:07:37.844Z,84.62
2019-03-17T09:08:37.819Z,83.80
2019-03-17T09:09:37.806Z,84.72
2019-03-17T09:10:37.791Z,84.00
2019-03-17T09:11:37.801Z,84.00
2019-03-17T09:12:37.785Z,84.52
2019-03-17T09:13:37.811Z,84.93
2019-03-17T09:14:37.755Z,84.62
2019-03-17T09:15:37.754Z,84.58
2019-03-17T09:16:37.733Z,84.58
2019-03-17T09:17:37.709Z,83.55
2019-03-17T09:18:37.715Z,83.14
2019-03-17T09:19:37.691Z,83.55
2019-03-17T09:20:37.690Z,84.79
2019-03-17T09:21:37.675Z,83.76
2019-03-17T09:22:37.662Z,83.86
2019-03-17T09:23:37.661Z,82.63
2019-03-17T09:24:37.645Z,83.83
2019-03-17T09:25:37.623Z,83.20
2019-03-17T09:26:37.616Z,82.69
2019-03-17T09:27:37.623Z,81.97
2019-03-17T09:28:37.598Z,80.22
2019-03-17T09:29:37.579Z,81.15
2019-03-17T09:30:37.597Z,82.07
2019-03-17T09:31:37.563Z,80.60
2019-03-17T09:32:37.545Z,82.65
2019-03-17T09:33:37.554Z,80.80
2019-03-17T09:34:37.540Z,80.49
2019-03-17T09:35:37.524Z,80.19
2019-03-17T09:36:37.520Z,79.77
2019-03-17T09:37:37.512Z,80.19
2019-03-17T09:38:46.741Z,80.60
2019-03-17T09:39:38.478Z,79.36
2019-03-17T09:40:37.458Z,81.28
2019-03-17T09:41:37.455Z,80.56
2019-03-17T09:42:37.451Z,79.02
2019-03-17T09:43:37.443Z,78.40
2019-03-17T09:44:37.429Z,78.40
2019-03-17T09:45:37.418Z,78.40
2019-03-17T09:46:37.402Z,78.81
2019-03-17T09:47:37.398Z,77.06
2019-03-17T09:48:37.397Z,78.09
2019-03-17T09:49:37.381Z,79.36
2019-03-17T09:50:37.355Z,77.89
2019-03-17T09:51:37.345Z,80.35
2019-03-17T09:52:37.328Z,78.40
2019-03-17T09:53:37.354Z,79.53
2019-03-17T09:54:37.327Z,78.78
2019-03-17T09:55:37.301Z,76.21
2019-03-17T09:56:37.305Z,76.31
2019-03-17T09:57:37.272Z,76.10
2019-03-17T09:58:37.272Z,75.90
2019-03-17T09:59:37.282Z,75.49
2019-03-17T10:00:37.249Z,76.72
2019-03-17T10:01:37.228Z,76.51
2019-03-17T10:02:37.244Z,74.87
2019-03-17T10:03:37.217Z,75.38
2019-03-17T10:04:37.202Z,76.82
2019-03-17T10:05:37.197Z,74.98
2019-03-17T10:06:37.199Z,74.43
2019-03-17T10:07:37.171Z,74.74
2019-03-17T10:08:37.170Z,74.12
2019-03-17T10:09:37.146Z,74.29
2019-03-17T10:10:37.140Z,73.98
2019-03-17T10:11:37.121Z,74.91
2019-03-17T10:12:37.127Z,73.68
2019-03-17T10:13:37.111Z,73.88
2019-03-17T10:14:37.105Z,74.49
2019-03-17T10:15:37.079Z,73.33
2019-03-17T10:16:37.102Z,73.33
2019-03-17T10:17:37.116Z,74.15
2019-03-17T10:18:37.052Z,73.33
2019-03-17T10:19:37.045Z,74.63
2019-03-17T10:20:37.027Z,75.04
2019-03-17T10:21:37.017Z,73.81
2019-03-17T10:22:39.735Z,75.04
2019-03-17T10:23:37.008Z,72.89
2019-03-17T10:24:36.982Z,74.12
2019-03-17T10:25:36.973Z,72.14
2019-03-17T10:26:36.967Z,73.57
2019-03-17T10:27:36.975Z,72.96
2019-03-17T10:28:36.943Z,71.69
2019-03-17T10:29:36.954Z,70.26
2019-03-17T10:30:36.926Z,69.34
2019-03-17T10:31:36.910Z,72.41
2019-03-17T10:32:36.910Z,72.82
2019-03-17T10:33:36.882Z,71.49
2019-03-17T10:34:36.868Z,71.59
2019-03-17T10:35:36.859Z,71.86
2019-03-17T10:36:36.851Z,70.12
2019-03-17T10:37:36.853Z,71.62
2019-03-17T10:38:36.837Z,70.84
2019-03-17T10:39:36.846Z,70.94
2019-03-17T10:40:36.818Z,69.27
2019-03-17T10:41:36.795Z,69.20
2019-03-17T10:42:36.795Z,70.71
2019-03-17T10:43:36.781Z,72.04
2019-03-17T10:44:36.773Z,68.55
2019-03-17T10:45:36.758Z,69.99
2019-03-17T10:46:36.754Z,69.07
2019-03-17T10:47:36.738Z,68.05
2019-03-17T10:48:36.814Z,68.05
2019-03-17T10:49:36.713Z,68.25
2019-03-17T10:50:48.728Z,67.87
2019-03-17T10:51:37.692Z,67.97
2019-03-17T10:52:36.690Z,69.00
2019-03-17T10:53:36.678Z,70.84
2019-03-17T10:54:36.665Z,68.49
2019-03-17T10:55:36.646Z,69.27
2019-03-17T10:56:36.636Z,68.25
2019-03-17T10:57:36.630Z,68.05
2019-03-17T10:58:36.615Z,66.82
2019-03-17T10:59:36.616Z,67.33
2019-03-17T11:00:36.589Z,67.02
2019-03-17T11:01:36.581Z,67.84
2019-03-17T11:02:36.578Z,67.54
2019-03-17T11:03:36.562Z,67.74
2019-03-17T11:04:36.560Z,68.15
2019-03-17T11:05:36.533Z,67.43
2019-03-17T11:06:36.518Z,67.23
2019-03-17T11:07:36.508Z,67.23
2019-03-17T11:08:36.517Z,67.74
2019-03-17T11:09:36.495Z,67.74
2019-03-17T11:10:36.488Z,65.80
2019-03-17T11:11:36.471Z,67.33
2019-03-17T11:12:36.460Z,67.94
2019-03-17T11:13:36.447Z,67.84
2019-03-17T11:14:36.448Z,67.33
2019-03-17T11:15:36.491Z,67.13
2019-03-17T11:16:36.412Z,66.82
2019-03-17T11:17:36.422Z,66.61
2019-03-17T11:18:36.404Z,68.15
2019-03-17T11:19:36.388Z,65.49
2019-03-17T11:20:36.375Z,66.58
2019-03-17T11:21:36.359Z,65.69
2019-03-17T11:22:36.359Z,66.00
2019-03-17T11:23:36.340Z,66.07
2019-03-17T11:24:36.338Z,63.72
2019-03-17T11:25:36.339Z,65.69
2019-03-17T11:26:36.319Z,66.48
2019-03-17T11:27:36.288Z,66.58
2019-03-17T11:28:36.282Z,65.97
2019-03-17T11:29:36.273Z,63.21
2019-03-17T11:30:36.277Z,66.28
2019-03-17T11:31:36.262Z,64.51
2019-03-17T11:32:36.246Z,63.79
2019-03-17T11:33:36.237Z,64.20
2019-03-17T11:34:36.213Z,63.48
2019-03-17T11:35:36.210Z,64.10
2019-03-17T11:36:36.210Z,62.98
2019-03-17T11:37:36.182Z,62.95
2019-03-17T11:38:36.188Z,61.44
2019-03-17T11:39:37.946Z,63.39
2019-03-17T11:40:36.165Z,62.54
2019-03-17T11:41:36.147Z,61.31
2019-03-17T11:42:36.137Z,61.51
2019-03-17T11:43:36.122Z,62.23
2019-03-17T11:44:36.110Z,61.41
2019-03-17T11:45:36.093Z,61.79
2019-03-17T11:46:36.092Z,61.49
2019-03-17T11:47:36.073Z,61.58
2019-03-17T11:48:36.088Z,60.85
2019-03-17T11:49:36.056Z,58.52
2019-03-17T11:50:36.044Z,62.40
2019-03-17T11:51:36.037Z,60.26
2019-03-17T11:52:36.019Z,58.11
2019-03-17T11:53:36.014Z,61.90
2019-03-17T11:54:36.009Z,61.18
2019-03-17T11:55:36.325Z,59.75
2019-03-17T11:56:36.087Z,61.08
2019-03-17T11:57:35.969Z,61.08
2019-03-17T11:58:36.042Z,62.92
2019-03-17T11:59:35.975Z,62.51
2019-03-17T12:00:35.933Z,61.49
2019-03-17T12:01:35.959Z,61.28
2019-03-17T12:02:35.989Z,61.35
2019-03-17T12:03:35.907Z,59.72
2019-03-17T12:04:35.912Z,60.85
2019-03-17T12:05:35.915Z,59.80
2019-03-17T12:06:35.874Z,59.28
2019-03-17T12:07:35.869Z,58.67
2019-03-17T12:08:35.936Z,58.39
2019-03-17T12:09:35.836Z,58.70
2019-03-17T12:10:35.875Z,59.92
2019-03-17T12:11:35.829Z,59.89
2019-03-17T12:12:35.823Z,58.37
2019-03-17T12:13:35.794Z,59.72
2019-03-17T12:14:35.815Z,58.70
2019-03-17T12:15:35.776Z,58.80
2019-03-17T12:16:35.796Z,58.80
2019-03-17T12:17:35.760Z,59.44
2019-03-17T12:18:35.771Z,59.64
2019-03-17T12:19:35.730Z,59.44
2019-03-17T12:20:35.717Z,60.87
2019-03-17T12:21:35.753Z,58.11
2019-03-17T12:22:35.707Z,58.86
2019-03-17T12:23:35.689Z,58.32
2019-03-17T12:24:35.686Z,61.82
2019-03-17T12:25:35.663Z,60.08
2019-03-17T12:26:35.702Z,59.85
2019-03-17T12:27:35.671Z,58.52
2019-03-17T12:28:35.648Z,59.03
2019-03-17T12:29:35.610Z,59.85
2019-03-17T12:30:35.604Z,58.01
2019-03-17T12:31:35.633Z,58.19
2019-03-17T12:32:35.586Z,59.31
2019-03-17T12:33:35.613Z,59.72
2019-03-17T12:34:35.582Z,58.09
2019-03-17T12:35:35.564Z,57.60
2019-03-17T12:36:35.566Z,57.57
2019-03-17T12:37:35.561Z,57.37
2019-03-17T12:38:35.510Z,59.82
2019-03-17T12:39:35.538Z,58.39
2019-03-17T12:40:35.524Z,56.84
2019-03-17T12:41:38.199Z,59.69
2019-03-17T12:42:35.470Z,58.26
2019-03-17T12:43:35.481Z,53.77
2019-03-17T12:44:35.562Z,52.96
2019-03-17T12:45:35.467Z,53.27
2019-03-17T12:46:35.441Z,51.04
2019-03-17T12:47:37.442Z,52.29
2019-03-17T12:48:35.405Z,53.92
2019-03-17T12:49:35.408Z,53.54
2019-03-17T12:50:35.430Z,55.36
2019-03-17T12:51:35.380Z,55.36
2019-03-17T12:52:35.376Z,54.74